createdAt,value
2019-03-17T00:00:24.947Z,78.30
2019-03-17T00:02:54.310Z,78.20
2019-03-17T00:05:23.675Z,77.90
2019-03-17T00:07:53.051Z,77.70
2019-03-17T00:10:22.420Z,77.60
2019-03-17T00:12:51.788Z,77.70
2019-03-17T00:15:21.172Z,77.50
2019-03-17T00:17:50.539Z,77.20
2019-03-17T00:20:19.952Z,76.90
2019-03-17T00:22:49.546Z,77.10
2019-03-17T00:25:18.911Z,76.80
2019-03-17T00:27:48.277Z,76.60
2019-03-17T00:30:17.726Z,76.60
2019-03-17T00:32:47.085Z,76.30
2019-03-17T00:35:16.557Z,76.30
2019-03-17T00:37:45.933Z,75.80
2019-03-17T00:40:15.341Z,75.60
2019-03-17T00:42:46.230Z,75.70
2019-03-17T00:45:15.631Z,75.50
2019-03-17T00:47:45.009Z,75.40
2019-03-17T00:50:14.455Z,75.30
2019-03-17T00:52:43.829Z,75.60
2019-03-17T00:55:13.202Z,74.80
2019-03-17T00:57:42.567Z,74.70
2019-03-17T01:00:15.153Z,74.70
2019-03-17T01:02:44.523Z,74.50
2019-03-17T01:05:13.899Z,74.40
2019-03-17T01:07:43.362Z,74.40
2019-03-17T01:10:12.926Z,74.10
2019-03-17T01:12:44.790Z,74.00
2019-03-17T01:15:13.394Z,73.80
2019-03-17T01:17:43.086Z,73.70
2019-03-17T01:20:12.519Z,73.60
2019-03-17T01:22:41.896Z,73.40
2019-03-17T01:25:11.345Z,73.40
2019-03-17T01:27:40.728Z,73.10
2019-03-17T01:30:12.982Z,72.90
2019-03-17T01:32:42.355Z,72.90
2019-03-17T01:35:11.714Z,72.80
2019-03-17T01:37:41.115Z,72.90
2019-03-17T01:40:11.194Z,72.50
2019-03-17T01:42:40.596Z,72.40
2019-03-17T01:45:11.038Z,72.40
2019-03-17T01:47:40.424Z,71.90
2019-03-17T01:50:10.637Z,72.00
2019-03-17T01:52:40.317Z,71.70
2019-03-17T01:55:09.758Z,71.50
2019-03-17T01:57:39.148Z,71.50
2019-03-17T02:00:13.081Z,72.20
2019-03-17T02:02:42.443Z,71.20
2019-03-17T02:05:21.415Z,71.10
2019-03-17T02:07:43.545Z,70.70
2019-03-17T02:10:13.350Z,70.70
2019-03-17T02:12:42.724Z,70.60
2019-03-17T02:15:12.104Z,70.50
2019-03-17T02:17:41.471Z,70.10
2019-03-17T02:20:11.582Z,70.00
2019-03-17T02:22:40.976Z,70.00
2019-03-17T02:25:10.511Z,70.50
2019-03-17T02:27:39.885Z,69.60
2019-03-17T02:30:12.492Z,69.50
2019-03-17T02:32:41.856Z,69.40
2019-03-17T02:35:11.293Z,69.00
2019-03-17T02:37:40.684Z,69.00
2019-03-17T02:40:10.184Z,68.80
2019-03-17T02:42:39.549Z,68.40
2019-03-17T02:45:10.732Z,68.30
2019-03-17T02:47:40.108Z,68.20
2019-03-17T02:50:10.506Z,68.20
2019-03-17T02:52:39.997Z,68.80
2019-03-17T02:55:10.296Z,68.00
2019-03-17T02:57:39.662Z,67.80
2019-03-17T03:00:11.640Z,67.70
2019-03-17T03:02:41.009Z,67.60
2019-03-17T03:05:11.086Z,67.40
2019-03-17T03:07:40.466Z,67.00
2019-03-17T03:10:10.439Z,66.90
2019-03-17T03:12:39.820Z,66.70
2019-03-17T03:15:10.588Z,66.60
2019-03-17T03:17:39.939Z,66.40
2019-03-17T03:20:10.423Z,66.30
2019-03-17T03:22:39.833Z,66.20
2019-03-17T03:25:10.484Z,66.00
2019-03-17T03:27:39.861Z,66.30
2019-03-17T03:30:15.365Z,66.30
2019-03-17T03:32:44.736Z,66.30
2019-03-17T03:35:14.172Z,65.90
2019-03-17T03:37:43.546Z,66.00
2019-03-17T03:40:13.581Z,65.90
2019-03-17T03:42:42.976Z,65.80
2019-03-17T03:45:13.717Z,65.80
2019-03-17T03:47:43.082Z,65.80
2019-03-17T03:50:13.228Z,65.70
2019-03-17T03:52:42.955Z,65.70
2019-03-17T03:55:12.369Z,65.70
2019-03-17T03:57:41.704Z,65.70
2019-03-17T04:00:14.960Z,65.90
2019-03-17T04:02:44.408Z,65.70
2019-03-17T04:05:13.771Z,65.80
2019-03-17T04:07:43.595Z,65.70
2019-03-17T04:10:13.392Z,65.80
2019-03-17T04:12:42.803Z,65.80
2019-03-17T04:15:12.804Z,65.90
2019-03-17T04:17:42.173Z,66.00
2019-03-17T04:20:12.876Z,65.80
2019-03-17T04:22:42.274Z,65.90
2019-03-17T04:25:14.127Z,66.00
2019-03-17T04:27:43.489Z,66.10
2019-03-17T04:30:13.098Z,66.00
2019-03-17T04:32:42.704Z,66.10
2019-03-17T04:35:12.138Z,66.20
2019-03-17T04:37:41.515Z,66.20
2019-03-17T04:40:11.345Z,66.00
2019-03-17T04:42:40.724Z,66.00
2019-03-17T04:45:10.426Z,66.20
2019-03-17T04:47:39.787Z,66.00
2019-03-17T04:50:10.631Z,65.90
2019-03-17T04:52:40.058Z,66.00
2019-03-17T04:55:09.668Z,66.10
2019-03-17T04:57:39.055Z,66.00
2019-03-17T05:00:13.444Z,66.10
2019-03-17T05:02:42.805Z,65.90
2019-03-17T05:05:12.172Z,66.00
2019-03-17T05:07:42.047Z,66.10
2019-03-17T05:10:11.925Z,66.10
2019-03-17T05:12:41.336Z,66.10
2019-03-17T05:15:11.850Z,66.10
2019-03-17T05:17:41.470Z,66.00
2019-03-17T05:20:11.684Z,66.00
2019-03-17T05:22:41.080Z,66.00
2019-03-17T05:25:10.808Z,66.00
2019-03-17T05:27:40.170Z,65.90
2019-03-17T05:30:13.860Z,65.80
2019-03-17T05:32:43.234Z,65.80
2019-03-17T05:35:12.604Z,65.70
2019-03-17T05:37:41.972Z,65.50
2019-03-17T05:40:11.675Z,65.80
2019-03-17T05:42:41.264Z,65.60
2019-03-17T05:45:10.796Z,65.60
2019-03-17T05:47:40.466Z,65.60
2019-03-17T05:50:10.820Z,65.50
2019-03-17T05:52:40.525Z,65.30
2019-03-17T05:55:10.625Z,65.30
2019-03-17T05:57:40.037Z,65.40
2019-03-17T06:00:16.405Z,65.10
2019-03-17T06:02:45.805Z,65.10
2019-03-17T06:05:15.169Z,64.90
2019-03-17T06:07:44.563Z,65.00
2019-03-17T06:10:14.196Z,65.00
2019-03-17T06:12:43.563Z,65.60
2019-03-17T06:15:13.163Z,65.00
2019-03-17T06:17:42.493Z,64.70
2019-03-17T06:20:12.898Z,64.90
2019-03-17T06:22:42.264Z,64.70
2019-03-17T06:25:11.709Z,64.80
2019-03-17T06:27:41.354Z,64.50
2019-03-17T06:30:15.017Z,64.40
2019-03-17T06:32:44.369Z,64.50
2019-03-17T06:35:13.728Z,64.40
2019-03-17T06:37:43.101Z,64.40
2019-03-17T06:40:14.079Z,64.30
2019-03-17T06:42:43.523Z,64.00
2019-03-17T06:45:12.883Z,64.30
2019-03-17T06:47:42.241Z,64.00
2019-03-17T06:50:14.491Z,63.70
2019-03-17T06:52:43.870Z,63.60
2019-03-17T06:55:16.325Z,63.40
2019-03-17T06:57:45.691Z,63.60
2019-03-17T07:00:15.300Z,63.50
2019-03-17T07:02:44.737Z,63.50
2019-03-17T07:05:14.096Z,63.40
2019-03-17T07:07:44.737Z,63.30
2019-03-17T07:10:14.300Z,63.40
2019-03-17T07:15:19.801Z,63.40
2019-03-17T07:17:49.161Z,63.30
2019-03-17T07:20:18.519Z,63.40
2019-03-17T07:22:47.890Z,63.10
2019-03-17T07:25:17.258Z,63.00
2019-03-17T07:27:46.632Z,62.80
2019-03-17T07:30:17.357Z,62.70
2019-03-17T07:32:46.987Z,62.70
2019-03-17T07:35:16.351Z,63.00
2019-03-17T07:37:56.095Z,62.70
2019-03-17T07:40:17.033Z,62.80
2019-03-17T07:42:46.370Z,62.90
2019-03-17T07:45:15.768Z,63.00
2019-03-17T07:47:45.123Z,63.00
2019-03-17T07:50:15.126Z,63.10
2019-03-17T07:52:44.587Z,62.70
2019-03-17T07:55:13.953Z,62.70
2019-03-17T07:57:43.311Z,62.90
2019-03-17T08:00:14.802Z,62.90
2019-03-17T08:02:44.239Z,63.20
2019-03-17T08:05:13.614Z,63.20
2019-03-17T08:07:43.043Z,62.90
2019-03-17T08:10:16.799Z,62.80
2019-03-17T08:12:46.235Z,62.80
2019-03-17T08:15:15.918Z,62.80
2019-03-17T08:17:45.271Z,62.90
2019-03-17T08:20:15.068Z,62.70
2019-03-17T08:22:44.431Z,62.80
2019-03-17T08:25:13.859Z,62.30
2019-03-17T08:27:43.218Z,62.50
2019-03-17T08:30:17.552Z,62.20
2019-03-17T08:32:46.917Z,62.10
2019-03-17T08:35:16.299Z,61.90
2019-03-17T08:37:45.675Z,61.60
2019-03-17T08:40:17.166Z,61.60
2019-03-17T08:42:46.516Z,61.10
2019-03-17T08:45:16.275Z,61.20
2019-03-17T08:47:57.328Z,61.30
2019-03-17T08:50:16.810Z,61.00
2019-03-17T08:52:46.678Z,60.90
2019-03-17T08:55:16.982Z,60.60
2019-03-17T08:57:46.388Z,60.40
2019-03-17T09:00:21.153Z,59.90
2019-03-17T09:02:50.543Z,59.40
2019-03-17T09:05:19.902Z,59.50
2019-03-17T09:07:49.310Z,59.40
2019-03-17T09:10:18.739Z,59.00
2019-03-17T09:12:48.050Z,58.90
2019-03-17T09:15:17.442Z,58.80
2019-03-17T09:17:46.797Z,58.50
2019-03-17T09:20:16.163Z,58.40
2019-03-17T09:22:45.539Z,58.50
2019-03-17T09:25:14.923Z,58.20
2019-03-17T09:27:44.284Z,58.30
2019-03-17T09:30:19.393Z,58.00
2019-03-17T09:32:48.743Z,58.20
2019-03-17T09:35:18.372Z,58.40
2019-03-17T09:37:48.109Z,58.10
2019-03-17T09:40:18.592Z,57.80
2019-03-17T09:42:48.056Z,58.10
2019-03-17T09:45:17.871Z,57.90
2019-03-17T09:47:47.283Z,57.80
2019-03-17T09:50:19.518Z,57.70
2019-03-17T09:52:49.602Z,57.20
2019-03-17T09:55:18.926Z,57.20
2019-03-17T09:57:48.554Z,57.40
2019-03-17T10:00:22.501Z,57.40
2019-03-17T10:02:51.865Z,57.00
2019-03-17T10:05:21.228Z,56.60
2019-03-17T10:07:51.034Z,56.00
2019-03-17T10:10:22.997Z,55.90
2019-03-17T10:12:52.533Z,55.60
2019-03-17T10:15:21.975Z,55.30
2019-03-17T10:17:51.361Z,55.10
2019-03-17T10:20:21.328Z,54.70
2019-03-17T10:22:50.821Z,54.50
2019-03-17T10:25:20.240Z,54.50
2019-03-17T10:27:49.611Z,54.30
2019-03-17T10:30:22.877Z,54.20
2019-03-17T10:32:52.546Z,53.80
2019-03-17T10:35:21.969Z,54.00
2019-03-17T10:37:51.363Z,53.50
2019-03-17T10:40:24.430Z,53.40
2019-03-17T10:42:53.796Z,53.20
2019-03-17T10:45:23.212Z,53.20
2019-03-17T10:47:54.497Z,53.30
2019-03-17T10:50:23.753Z,53.30
2019-03-17T10:52:53.660Z,53.40
2019-03-17T10:55:23.027Z,53.10
2019-03-17T10:57:52.380Z,53.10
2019-03-17T11:00:24.652Z,53.10
2019-03-17T11:02:54.024Z,52.90
2019-03-17T11:05:23.384Z,52.80
2019-03-17T11:07:52.773Z,53.10
2019-03-17T11:10:22.134Z,53.10
2019-03-17T11:12:51.502Z,52.80
2019-03-17T11:15:23.204Z,52.30
2019-03-17T11:17:52.604Z,52.10
2019-03-17T11:20:21.989Z,52.10
2019-03-17T11:22:51.364Z,51.90
2019-03-17T11:25:21.257Z,51.50
2019-03-17T11:27:50.625Z,51.30
2019-03-17T11:30:22.492Z,51.70
2019-03-17T11:32:51.856Z,51.50
2019-03-17T11:35:21.216Z,51.50
2019-03-17T11:37:50.688Z,51.50
2019-03-17T11:40:23.066Z,52.00
2019-03-17T11:42:52.425Z,51.30
2019-03-17T11:45:21.808Z,51.40
2019-03-17T11:47:52.207Z,51.40
2019-03-17T11:50:22.648Z,51.50
2019-03-17T11:52:52.833Z,51.20
2019-03-17T11:55:22.261Z,51.30
2019-03-17T11:57:51.684Z,51.40
2019-03-17T12:00:23.567Z,51.30
2019-03-17T12:02:52.983Z,51.30
2019-03-17T12:05:22.393Z,51.30
2019-03-17T12:07:51.802Z,51.40
2019-03-17T12:10:23.823Z,51.30
2019-03-17T12:12:53.299Z,51.20
2019-03-17T12:15:32.319Z,51.00
2019-03-17T12:18:04.505Z,51.60
2019-03-17T12:20:33.871Z,51.50
2019-03-17T12:23:03.245Z,51.80
2019-03-17T12:25:32.612Z,51.60
2019-03-17T12:28:02.035Z,51.80
2019-03-17T12:30:31.413Z,51.50
2019-03-17T12:33:00.813Z,51.60
2019-03-17T12:35:30.183Z,51.80
2019-03-17T12:37:59.593Z,51.80
2019-03-17T12:40:28.968Z,51.90
2019-03-17T12:42:58.423Z,52.00
2019-03-17T12:45:27.807Z,51.80
2019-03-17T12:47:57.191Z,52.00
2019-03-17T12:50:27.588Z,52.00
2019-03-17T12:52:57.013Z,52.00
2019-03-17T12:55:26.375Z,52.10
2019-03-17T12:57:56.835Z,52.20
2019-03-17T13:00:28.193Z,52.50
2019-03-17T13:02:58.673Z,52.70
2019-03-17T13:05:28.744Z,52.80
2019-03-17T13:07:58.135Z,50.90
2019-03-17T13:10:27.480Z,52.10
2019-03-17T13:12:56.852Z,52.40
2019-03-17T13:15:26.221Z,52.60
2019-03-17T13:17:55.582Z,53.50
2019-03-17T13:20:25.002Z,54.00
2019-03-17T13:22:54.376Z,55.50
2019-03-17T13:25:23.730Z,55.90
2019-03-17T13:27:53.116Z,56.50
2019-03-17T13:30:22.466Z,57.40
2019-03-17T13:32:51.846Z,58.20
2019-03-17T13:35:21.238Z,59.00
2019-03-17T13:37:50.616Z,59.40
2019-03-17T13:40:29.300Z,59.80
2019-03-17T13:42:52.480Z,60.40
2019-03-17T13:45:21.866Z,60.30
2019-03-17T13:47:53.053Z,61.00
2019-03-17T13:50:23.735Z,61.10
2019-03-17T13:52:53.110Z,61.80
2019-03-17T13:55:22.488Z,62.70
2019-03-17T13:58:11.836Z,62.30
2019-03-17T14:00:41.186Z,62.40
2019-03-17T14:03:10.544Z,62.70
2019-03-17T14:05:39.934Z,63.20
2019-03-17T14:08:10.486Z,63.50
2019-03-17T14:10:41.405Z,64.10
2019-03-17T14:13:11.733Z,64.20
2019-03-17T14:15:41.095Z,64.60
2019-03-17T14:18:10.458Z,64.20
2019-03-17T14:20:40.061Z,64.30
2019-03-17T14:23:09.520Z,64.60
2019-03-17T14:25:39.463Z,64.60
2019-03-17T14:28:08.876Z,64.70
2019-03-17T14:30:38.249Z,64.50
2019-03-17T14:33:07.730Z,64.30
2019-03-17T14:35:37.115Z,63.80
2019-03-17T14:38:06.504Z,64.00
2019-03-17T14:40:36.137Z,63.90
2019-03-17T14:43:05.792Z,64.40
2019-03-17T14:45:35.240Z,63.90
2019-03-17T14:48:04.614Z,64.00
2019-03-17T14:50:33.993Z,64.00
2019-03-17T14:53:03.385Z,64.60
2019-03-17T14:55:32.755Z,64.30
2019-03-17T14:58:02.137Z,64.10
2019-03-17T15:00:31.797Z,64.10
2019-03-17T15:03:01.153Z,64.30
2019-03-17T15:05:30.582Z,64.60
2019-03-17T15:07:59.971Z,63.70
2019-03-17T15:10:30.937Z,63.70
2019-03-17T15:13:00.321Z,64.00
2019-03-17T15:15:29.697Z,64.50
2019-03-17T15:17:59.079Z,64.60
2019-03-17T15:20:28.935Z,64.80
2019-03-17T15:22:58.304Z,65.00
2019-03-17T15:25:27.665Z,65.00
2019-03-17T15:27:57.325Z,64.80
2019-03-17T15:30:35.139Z,65.10
2019-03-17T15:33:04.504Z,65.50
2019-03-17T15:35:33.868Z,65.00
2019-03-17T15:38:03.226Z,65.10
2019-03-17T15:40:32.649Z,64.90
2019-03-17T15:43:02.029Z,65.00
2019-03-17T15:45:31.378Z,65.30
2019-03-17T15:48:00.789Z,65.00
2019-03-17T15:50:31.694Z,65.50
2019-03-17T15:53:01.131Z,65.50
2019-03-17T15:55:30.507Z,65.80
2019-03-17T15:57:59.863Z,65.50
2019-03-17T16:00:29.244Z,65.30
2019-03-17T16:02:58.691Z,65.10
2019-03-17T16:05:28.216Z,65.40
2019-03-17T16:07:57.532Z,65.20
2019-03-17T16:10:29.742Z,64.80
2019-03-17T16:13:00.365Z,65.10
2019-03-17T16:15:29.724Z,65.30
2019-03-17T16:17:59.112Z,65.10
2019-03-17T16:20:29.060Z,65.10
2019-03-17T16:22:58.440Z,65.50
2019-03-17T16:25:37.063Z,66.00
2019-03-17T16:28:06.434Z,65.00
2019-03-17T16:30:36.115Z,64.90
2019-03-17T16:33:05.912Z,64.50
2019-03-17T16:35:35.305Z,64.60
2019-03-17T16:38:04.690Z,64.90
2019-03-17T16:40:36.287Z,65.10
2019-03-17T16:43:06.757Z,64.80
2019-03-17T16:45:36.119Z,64.90
2019-03-17T16:48:05.605Z,65.10
2019-03-17T16:50:34.975Z,64.90
2019-03-17T16:53:04.430Z,64.90
2019-03-17T16:55:33.818Z,64.90
2019-03-17T16:58:03.181Z,65.20
2019-03-17T17:00:32.539Z,65.30
2019-03-17T17:03:02.148Z,65.30
2019-03-17T17:05:34.810Z,65.30
2019-03-17T17:08:02.861Z,65.10
2019-03-17T17:10:32.921Z,65.30
2019-03-17T17:13:02.316Z,65.20
2019-03-17T17:15:34.825Z,65.10
2019-03-17T17:18:04.883Z,65.50
2019-03-17T17:20:39.453Z,66.10
2019-03-17T17:23:08.815Z,66.50
2019-03-17T17:25:38.501Z,66.70
2019-03-17T17:28:07.942Z,66.40
2019-03-17T17:30:37.299Z,66.80
2019-03-17T17:33:06.751Z,66.60
2019-03-17T17:35:36.161Z,66.40
2019-03-17T17:38:05.586Z,66.60
2019-03-17T17:40:34.981Z,65.70
2019-03-17T17:43:04.420Z,65.30
2019-03-17T17:45:33.832Z,64.80
2019-03-17T17:48:03.336Z,64.40
2019-03-17T17:50:33.727Z,64.90
2019-03-17T17:53:03.086Z,64.90
2019-03-17T17:55:32.475Z,64.80
2019-03-17T17:58:01.846Z,64.30
2019-03-17T18:00:32.847Z,65.30
2019-03-17T18:03:02.231Z,64.20
2019-03-17T18:05:31.626Z,63.40
2019-03-17T18:08:01.001Z,63.30
2019-03-17T18:10:30.693Z,63.40
2019-03-17T18:13:00.071Z,63.60
2019-03-17T18:15:32.452Z,63.80
2019-03-17T18:18:02.384Z,63.50
2019-03-17T18:20:31.761Z,63.30
2019-03-17T18:23:01.126Z,62.50
2019-03-17T18:25:30.494Z,62.30
2019-03-17T18:27:59.858Z,61.70
2019-03-17T18:30:29.256Z,61.20
2019-03-17T18:32:58.695Z,61.50
2019-03-17T18:35:28.075Z,61.30
2019-03-17T18:37:57.442Z,61.10
2019-03-17T18:40:26.851Z,60.80
2019-03-17T18:42:56.574Z,60.80
2019-03-17T18:45:32.336Z,60.80
2019-03-17T18:48:01.768Z,60.30
2019-03-17T18:50:31.136Z,60.10
2019-03-17T18:53:00.505Z,60.00
2019-03-17T18:55:29.878Z,59.80
2019-03-17T18:57:59.247Z,59.80
2019-03-17T19:00:28.651Z,59.50
2019-03-17T19:02:58.051Z,59.50
2019-03-17T19:05:27.448Z,59.70
2019-03-17T19:07:56.882Z,59.30
2019-03-17T19:10:26.579Z,59.00
2019-03-17T19:12:55.947Z,59.20
2019-03-17T19:15:25.378Z,59.50
2019-03-17T19:17:54.762Z,59.30
2019-03-17T19:20:25.101Z,59.30
2019-03-17T19:22:54.480Z,59.10
2019-03-17T19:25:26.059Z,58.90
2019-03-17T19:27:55.427Z,58.80
2019-03-17T19:30:25.095Z,58.80
2019-03-17T19:32:54.507Z,59.10
2019-03-17T19:35:24.147Z,59.00
2019-03-17T19:37:53.605Z,59.70
2019-03-17T19:40:25.195Z,59.40
2019-03-17T19:42:59.026Z,59.30
2019-03-17T19:45:25.655Z,59.40
2019-03-17T19:47:55.102Z,59.50
2019-03-17T19:50:24.762Z,59.50
2019-03-17T19:52:54.127Z,59.80
2019-03-17T19:55:23.503Z,59.80
2019-03-17T19:57:52.925Z,60.00
2019-03-17T20:00:23.389Z,59.90
2019-03-17T20:02:52.770Z,60.10
2019-03-17T20:05:22.135Z,60.30
2019-03-17T20:07:51.559Z,60.30
2019-03-17T20:10:35.340Z,60.40
2019-03-17T20:13:11.521Z,60.60
2019-03-17T20:15:36.227Z,60.40
2019-03-17T20:18:05.622Z,60.50
2019-03-17T20:20:34.987Z,61.40
2019-03-17T20:23:04.355Z,60.70
2019-03-17T20:25:34.022Z,61.60
2019-03-17T20:28:03.404Z,61.00
2019-03-17T20:30:32.779Z,61.20
2019-03-17T20:33:02.179Z,61.20
2019-03-17T20:35:31.558Z,61.20
2019-03-17T20:38:00.953Z,61.20
2019-03-17T20:40:30.341Z,61.40
2019-03-17T20:43:00.090Z,61.40
2019-03-17T20:45:29.456Z,61.50
2019-03-17T20:47:58.913Z,61.70
2019-03-17T20:50:28.291Z,61.70
2019-03-17T20:52:57.671Z,62.00
2019-03-17T20:55:27.078Z,61.90
2019-03-17T20:57:56.446Z,62.10
2019-03-17T21:00:25.820Z,62.50
2019-03-17T21:02:55.201Z,62.60
2019-03-17T21:05:24.570Z,62.50
2019-03-17T21:07:53.955Z,62.60
2019-03-17T21:10:23.343Z,62.60
2019-03-17T21:12:52.707Z,62.70
2019-03-17T21:15:22.429Z,62.80
2019-03-17T21:17:51.980Z,63.00
2019-03-17T21:20:25.527Z,62.90
2019-03-17T21:22:55.122Z,63.00
2019-03-17T21:25:24.568Z,63.30
2019-03-17T21:27:53.924Z,63.40
2019-03-17T21:30:29.437Z,63.40
2019-03-17T21:32:59.299Z,63.60
2019-03-17T21:35:28.660Z,63.70
2019-03-17T21:37:58.021Z,63.60
2019-03-17T21:40:27.459Z,63.50
2019-03-17T21:42:56.822Z,63.70
2019-03-17T21:45:27.519Z,63.80
2019-03-17T21:47:57.142Z,64.00
2019-03-17T21:50:26.517Z,64.10
2019-03-17T21:52:55.885Z,64.20
2019-03-17T21:55:25.828Z,64.50
2019-03-17T21:57:55.203Z,64.50
2019-03-17T22:00:24.614Z,64.60
2019-03-17T22:02:55.208Z,64.50
2019-03-17T22:05:25.087Z,64.70
2019-03-17T22:07:54.477Z,64.80
2019-03-17T22:10:23.830Z,64.80
2019-03-17T22:15:29.293Z,64.90
2019-03-17T22:17:58.726Z,64.80
2019-03-17T22:20:28.090Z,65.00
2019-03-17T22:22:57.459Z,65.00
2019-03-17T22:25:27.203Z,64.80
2019-03-17T22:28:07.653Z,64.90
2019-03-17T22:30:27.659Z,64.90
2019-03-17T22:32:57.399Z,65.20
2019-03-17T22:35:26.777Z,65.00
2019-03-17T22:37:56.204Z,64.80
2019-03-17T22:40:25.573Z,64.90
2019-03-17T22:42:54.943Z,64.90
2019-03-17T22:45:24.302Z,64.80
2019-03-17T22:47:53.680Z,65.00
2019-03-17T22:50:23.061Z,64.90
2019-03-17T22:52:52.412Z,64.80
2019-03-17T22:55:21.782Z,64.50
2019-03-17T22:57:51.153Z,64.50
2019-03-17T23:00:26.686Z,64.60
2019-03-17T23:02:56.119Z,64.60
2019-03-17T23:05:26.045Z,64.60
2019-03-17T23:07:55.403Z,64.50
2019-03-17T23:10:24.776Z,65.30
2019-03-17T23:12:54.131Z,64.70
2019-03-17T23:15:23.502Z,64.60
2019-03-17T23:17:52.872Z,64.30
2019-03-17T23:20:22.239Z,64.30
2019-03-17T23:22:51.608Z,64.30
2019-03-17T23:25:21.476Z,64.40
2019-03-17T23:27:51.168Z,64.70
2019-03-17T23:30:22.346Z,64.60
2019-03-17T23:32:51.721Z,64.60
2019-03-17T23:35:21.081Z,64.60
2019-03-17T23:37:50.450Z,64.80
2019-03-17T23:40:19.825Z,64.70
2019-03-17T23:42:49.198Z,64.90
2019-03-17T23:45:18.576Z,64.90
2019-03-17T23:47:48.010Z,64.90
2019-03-17T23:50:17.444Z,64.80
2019-03-17T23:52:46.830Z,65.00
2019-03-17T23:55:16.203Z,65.00
2019-03-17T23:57:45.566Z,64.90
